Main page
METAR-TAF:

METAR-TAF

Airports :

Mary, Turkmenistan

Mary International Airport

latitude: 37-36-24N, longitude: 061-54-05E, elevation: 222 m

Current weather observation

The report was made 19 minutes ago, at 00:00 UTC
Wind 4 kt from the North/Northwest
Temperature 17°C
Humidity 45%
Pressure 1015 hPa
Visibility: 6000 m
Clear sky

METAR: UTAM 200000Z 34004KT 6000 SKC 17/05 Q1015 NOSIG

Time: 05:19 (00:19 UTC)

Forecast

The report was made 1 hour and 49 minutes ago, at 22:30 UTC
Forecast valid from 20 at 00 UTC to 20 at 24 UTC
Wind 14 kt from the North
Visibility 10 km or more
no clouds below 1500 m and no cumulonimbus
Temporary
from 20 at 00 UTC to 20 at 04 UTC
Wind 4 kt from variable directions
Visibility: 5000 m
Clear sky
Temporary
from 20 at 06 UTC to 20 at 14 UTC
Wind 12 kt from the North with gusts up to 22 kt
Becoming
from 20 at 14 UTC to 20 at 16 UTC
Visibility: 6000 m

TAF: UTAM 192230Z 2000/2024 35014KT CAVOK 530009 TEMPO 2000/2004 VRB04KT 5000 SKC TEMPO 2006/2014 36012G22KT BECMG 2014/2016 6000 NSC

Weather observations and forecasts of more than 4000 airports (METAR and TAF reports).

The available stations are represented by yellow and red dots on the map.

Hover mouse over dot to see the name of the station.

Then click to see weather observations and forecasts.

To change the map : click on the green buttons with a black cross to zoom in, on the green button with a dash to zoom out, or on the green arrows for adjacent maps.


METAR-TAF: